createdAt,value
2023-03-12T00:03:01.479Z,100.00
2023-03-12T00:06:10.490Z,100.00
2023-03-12T00:09:13.637Z,100.00
2023-03-12T00:12:16.496Z,100.00
2023-03-12T00:15:19.477Z,100.00
2023-03-12T00:18:22.234Z,100.00
2023-03-12T00:21:26.463Z,100.00
2023-03-12T00:24:29.057Z,100.00
2023-03-12T00:27:31.690Z,100.00
2023-03-12T00:30:34.291Z,100.00
2023-03-12T00:33:36.865Z,100.00
2023-03-12T00:36:41.298Z,100.00
2023-03-12T00:39:43.884Z,100.00
2023-03-12T00:42:46.461Z,100.00
2023-03-12T00:45:49.124Z,100.00
2023-03-12T00:48:51.745Z,100.00
2023-03-12T00:51:55.747Z,100.00
2023-03-12T00:54:58.870Z,100.00
2023-03-12T00:58:01.526Z,100.00
2023-03-12T01:01:05.239Z,100.00
2023-03-12T01:04:08.050Z,100.00
2023-03-12T01:07:12.000Z,100.00
2023-03-12T01:10:16.805Z,100.00
2023-03-12T01:13:19.569Z,100.00
2023-03-12T01:16:22.268Z,100.00
2023-03-12T01:19:24.941Z,100.00
2023-03-12T01:22:28.985Z,100.00
2023-03-12T01:25:31.628Z,100.00
2023-03-12T01:28:34.256Z,100.00
2023-03-12T01:31:36.999Z,100.00
2023-03-12T01:34:39.593Z,100.00
2023-03-12T01:37:43.571Z,100.00
2023-03-12T01:40:46.213Z,100.00
2023-03-12T01:43:49.121Z,100.00
2023-03-12T01:46:51.709Z,100.00
2023-03-12T01:49:56.809Z,100.00
2023-03-12T01:53:01.141Z,100.00
2023-03-12T01:56:04.193Z,100.00
2023-03-12T01:59:13.455Z,100.00
2023-03-12T02:02:18.555Z,100.00
2023-03-12T02:05:26.290Z,100.00
2023-03-12T02:08:30.835Z,100.00
2023-03-12T02:11:33.498Z,100.00
2023-03-12T02:14:36.513Z,100.00
2023-03-12T02:17:40.394Z,100.00
2023-03-12T02:20:51.556Z,100.00
2023-03-12T02:24:02.841Z,100.00
2023-03-12T02:27:08.916Z,100.00
2023-03-12T02:30:15.844Z,100.00
2023-03-12T02:33:18.809Z,100.00
2023-03-12T02:36:21.518Z,100.00
2023-03-12T02:39:24.732Z,100.00
2023-03-12T02:42:28.778Z,100.00
2023-03-12T02:45:31.510Z,100.00
2023-03-12T02:48:34.129Z,100.00
2023-03-12T02:51:36.708Z,100.00
2023-03-12T02:54:39.308Z,100.00
2023-03-12T02:57:43.849Z,100.00
2023-03-12T03:00:46.431Z,100.00
2023-03-12T03:03:49.243Z,100.00
2023-03-12T03:06:52.381Z,100.00
2023-03-12T03:09:55.057Z,100.00
2023-03-12T03:12:59.360Z,100.00
2023-03-12T03:16:03.750Z,100.00
2023-03-12T03:19:06.759Z,100.00
2023-03-12T03:22:09.394Z,100.00
2023-03-12T03:25:12.181Z,100.00
2023-03-12T03:28:16.136Z,100.00
2023-03-12T03:31:19.759Z,100.00
2023-03-12T03:34:22.904Z,100.00
2023-03-12T03:37:25.549Z,100.00
2023-03-12T03:40:28.263Z,100.00
2023-03-12T03:43:32.505Z,100.00
2023-03-12T03:46:35.535Z,100.00
2023-03-12T03:49:38.197Z,100.00
2023-03-12T03:52:40.964Z,100.00
2023-03-12T03:55:43.608Z,100.00
2023-03-12T03:58:48.032Z,100.00
2023-03-12T04:01:50.633Z,100.00
2023-03-12T04:04:53.309Z,100.00
2023-03-12T04:07:56.740Z,100.00
2023-03-12T04:10:59.486Z,100.00
2023-03-12T04:14:03.696Z,100.00
2023-03-12T04:17:06.358Z,100.00
2023-03-12T04:20:11.169Z,100.00
2023-03-12T04:23:13.774Z,100.00
2023-03-12T04:26:17.444Z,100.00
2023-03-12T04:29:21.536Z,100.00
2023-03-12T04:32:24.141Z,100.00
2023-03-12T04:35:26.911Z,100.00
2023-03-12T04:38:29.736Z,100.00
2023-03-12T04:41:35.078Z,100.00
2023-03-12T04:44:40.945Z,100.00
2023-03-12T04:47:43.749Z,100.00
2023-03-12T04:50:46.332Z,100.00
2023-03-12T04:53:49.010Z,100.00
2023-03-12T04:56:52.199Z,100.00
2023-03-12T04:59:56.528Z,100.00
2023-03-12T05:02:59.154Z,100.00
2023-03-12T05:06:01.892Z,100.00
2023-03-12T05:09:04.861Z,100.00
2023-03-12T05:12:08.235Z,100.00
2023-03-12T05:15:12.669Z,100.00
2023-03-12T05:18:15.688Z,100.00
2023-03-12T05:21:20.925Z,100.00
2023-03-12T05:24:23.644Z,100.00
2023-03-12T05:27:26.492Z,100.00
2023-03-12T05:30:30.555Z,100.00
2023-03-12T05:33:33.189Z,100.00
2023-03-12T05:36:35.773Z,100.00
2023-03-12T05:39:38.407Z,100.00
2023-03-12T05:42:41.132Z,100.00
2023-03-12T05:45:45.234Z,100.00
2023-03-12T05:48:47.882Z,100.00
2023-03-12T05:51:51.426Z,100.00
2023-03-12T05:54:54.423Z,100.00
2023-03-12T05:57:57.066Z,100.00
2023-03-12T06:01:01.147Z,100.00
2023-03-12T06:04:03.905Z,100.00
2023-03-12T06:07:06.594Z,100.00
2023-03-12T06:10:10.728Z,100.00
2023-03-12T06:13:13.361Z,100.00
2023-03-12T06:16:20.572Z,100.00
2023-03-12T06:19:23.276Z,100.00
2023-03-12T06:22:26.377Z,100.00
2023-03-12T06:25:29.119Z,100.00
2023-03-12T06:28:31.746Z,100.00
2023-03-12T06:31:38.610Z,100.00
2023-03-12T06:34:41.538Z,100.00
2023-03-12T06:37:44.131Z,100.00
2023-03-12T06:40:55.200Z,100.00
2023-03-12T06:43:59.045Z,100.00
2023-03-12T06:47:02.983Z,100.00
2023-03-12T06:50:06.428Z,100.00
2023-03-12T06:53:09.359Z,100.00
2023-03-12T06:56:12.145Z,100.00
2023-03-12T06:59:14.747Z,100.00
2023-03-12T07:02:18.798Z,100.00
2023-03-12T07:05:21.643Z,100.00
2023-03-12T07:08:24.802Z,100.00
2023-03-12T07:11:27.394Z,100.00
2023-03-12T07:14:29.974Z,100.00
2023-03-12T07:17:34.252Z,100.00
2023-03-12T07:20:39.145Z,100.00
2023-03-12T07:23:41.724Z,100.00
2023-03-12T07:26:44.391Z,99.64
2023-03-12T07:29:47.146Z,100.00
2023-03-12T07:32:51.153Z,98.70
2023-03-12T07:35:53.971Z,99.51
2023-03-12T07:38:56.758Z,99.88
2023-03-12T07:41:59.593Z,98.66
2023-03-12T07:45:04.169Z,98.87
2023-03-12T07:48:09.358Z,98.56
2023-03-12T07:51:12.076Z,98.48
2023-03-12T07:54:14.932Z,98.16
2023-03-12T07:57:18.022Z,97.32
2023-03-12T08:00:21.509Z,96.36
2023-03-12T08:03:25.790Z,95.30
2023-03-12T08:06:28.895Z,94.15
2023-03-12T08:09:32.420Z,94.57
2023-03-12T08:12:35.532Z,95.63
2023-03-12T08:15:38.143Z,94.33
2023-03-12T08:18:42.960Z,94.87
2023-03-12T08:21:45.663Z,93.16
2023-03-12T08:24:48.862Z,93.69
2023-03-12T08:27:51.678Z,93.64
2023-03-12T08:30:56.011Z,92.16
2023-03-12T08:34:00.243Z,92.35
2023-03-12T08:37:03.279Z,91.71
2023-03-12T08:40:12.901Z,90.05
2023-03-12T08:43:15.563Z,91.83
2023-03-12T08:46:18.217Z,92.67
2023-03-12T08:49:23.799Z,93.03
2023-03-12T08:52:26.404Z,92.34
2023-03-12T08:55:30.201Z,91.69
2023-03-12T08:58:33.174Z,88.55
2023-03-12T09:01:35.823Z,88.93
2023-03-12T09:04:40.139Z,89.50
2023-03-12T09:07:43.070Z,89.85
2023-03-12T09:10:49.445Z,89.08
2023-03-12T09:14:26.544Z,88.66
2023-03-12T09:17:14.716Z,87.51
2023-03-12T09:20:19.050Z,88.84
2023-03-12T09:23:21.834Z,89.67
2023-03-12T09:26:24.447Z,89.33
2023-03-12T09:29:27.022Z,86.96
2023-03-12T09:32:29.838Z,87.56
2023-03-12T09:35:33.857Z,86.92
2023-03-12T09:38:37.881Z,85.65
2023-03-12T09:41:43.681Z,83.39
2023-03-12T09:44:48.164Z,87.15
2023-03-12T09:47:53.282Z,85.85
2023-03-12T09:50:57.331Z,87.06
2023-03-12T09:54:04.584Z,86.39
2023-03-12T09:57:13.455Z,85.03
2023-03-12T10:00:18.393Z,85.59
2023-03-12T10:03:37.740Z,83.84
2023-03-12T10:06:47.314Z,84.80
2023-03-12T10:10:16.770Z,84.57
2023-03-12T10:13:38.161Z,83.56
2023-03-12T10:16:55.175Z,81.29
2023-03-12T10:20:20.400Z,82.07
2023-03-12T10:23:38.265Z,73.14
2023-03-12T10:26:43.936Z,74.84
2023-03-12T10:29:49.890Z,74.31
2023-03-12T10:32:57.235Z,74.42
2023-03-12T10:36:00.020Z,72.02
2023-03-12T10:39:04.830Z,70.44
2023-03-12T10:42:15.677Z,70.48
2023-03-12T10:45:30.767Z,68.64
2023-03-12T10:48:33.458Z,66.31
2023-03-12T10:51:55.229Z,67.55
2023-03-12T10:55:13.457Z,66.19
2023-03-12T10:58:24.467Z,64.30
2023-03-12T11:01:29.866Z,66.01
2023-03-12T11:04:33.592Z,64.16
2023-03-12T11:07:36.430Z,64.59
2023-03-12T11:10:44.444Z,64.08
2023-03-12T11:13:47.022Z,61.56
2023-03-12T11:16:50.413Z,67.85
2023-03-12T11:19:53.283Z,64.95
2023-03-12T11:22:56.058Z,63.92
2023-03-12T11:26:03.224Z,64.36
2023-03-12T11:29:14.260Z,66.57
2023-03-12T11:32:20.070Z,66.60
2023-03-12T11:35:36.628Z,61.80
2023-03-12T11:38:42.753Z,64.52
2023-03-12T11:42:08.104Z,64.46
2023-03-12T11:45:20.004Z,67.94
2023-03-12T11:48:29.910Z,65.27
2023-03-12T11:51:44.219Z,66.69
2023-03-12T11:55:06.737Z,64.22
2023-03-12T11:58:27.620Z,65.72
2023-03-12T12:01:40.819Z,71.75
2023-03-12T12:05:05.778Z,65.51
2023-03-12T12:08:33.205Z,68.72
2023-03-12T12:11:46.141Z,66.39
2023-03-12T12:15:08.756Z,68.62
2023-03-12T12:18:30.555Z,68.29
2023-03-12T12:21:50.297Z,69.43
2023-03-12T12:25:22.487Z,69.99
2023-03-12T12:28:38.012Z,68.66
2023-03-12T12:31:50.084Z,71.24
2023-03-12T12:35:04.480Z,73.36
2023-03-12T12:38:14.246Z,71.59
2023-03-12T12:41:19.259Z,71.30
2023-03-12T12:44:26.271Z,70.92
2023-03-12T12:47:41.454Z,73.48
2023-03-12T12:50:47.148Z,69.36
2023-03-12T12:53:55.117Z,69.44
2023-03-12T12:57:04.584Z,70.28
2023-03-12T13:00:24.149Z,71.42
2023-03-12T13:03:30.496Z,71.77
2023-03-12T13:06:58.740Z,74.20
2023-03-12T13:10:07.568Z,74.80
2023-03-12T13:13:14.088Z,77.63
2023-03-12T13:16:33.726Z,78.59
2023-03-12T13:19:45.020Z,81.08
2023-03-12T13:23:01.914Z,83.40
2023-03-12T13:26:09.859Z,85.16
2023-03-12T13:29:24.408Z,86.28
2023-03-12T13:33:07.526Z,87.66
2023-03-12T13:36:28.168Z,89.23
2023-03-12T13:39:33.704Z,89.97
2023-03-12T13:42:39.912Z,89.82
2023-03-12T13:45:59.198Z,91.48
2023-03-12T13:49:07.008Z,91.76
2023-03-12T13:52:20.018Z,92.71
2023-03-12T13:55:27.588Z,92.42
2023-03-12T13:58:31.695Z,92.53
2023-03-12T14:01:38.763Z,93.34
2023-03-12T14:04:43.146Z,91.57
2023-03-12T14:08:19.042Z,92.53
2023-03-12T14:11:30.818Z,93.13
2023-03-12T14:15:00.341Z,93.40
2023-03-12T14:18:13.616Z,96.11
2023-03-12T14:21:18.494Z,100.00
2023-03-12T14:24:28.606Z,100.00
2023-03-12T14:27:34.820Z,100.00
2023-03-12T14:30:45.773Z,100.00
2023-03-12T14:33:57.002Z,100.00
2023-03-12T14:37:05.739Z,100.00
2023-03-12T14:40:22.067Z,100.00
2023-03-12T14:43:27.996Z,100.00
2023-03-12T14:46:30.930Z,100.00
2023-03-12T14:49:33.728Z,100.00
2023-03-12T14:52:36.352Z,100.00
2023-03-12T14:55:40.386Z,100.00
2023-03-12T14:58:45.047Z,100.00
2023-03-12T15:01:48.633Z,100.00
2023-03-12T15:04:55.156Z,100.00
2023-03-12T15:08:02.601Z,100.00
2023-03-12T15:11:06.761Z,100.00
2023-03-12T15:14:15.304Z,100.00
2023-03-12T15:17:20.392Z,100.00
2023-03-12T15:20:25.584Z,100.00
2023-03-12T15:23:31.361Z,100.00
2023-03-12T15:26:38.028Z,100.00
2023-03-12T15:29:42.783Z,100.00
2023-03-12T15:33:05.135Z,100.00
2023-03-12T15:36:23.928Z,100.00
2023-03-12T15:39:29.699Z,100.00
2023-03-12T15:42:39.561Z,100.00
2023-03-12T15:45:42.319Z,100.00
2023-03-12T15:48:50.262Z,100.00
2023-03-12T15:52:01.463Z,100.00
2023-03-12T15:55:09.074Z,100.00
2023-03-12T15:58:29.774Z,100.00
2023-03-12T16:01:45.131Z,100.00
2023-03-12T16:04:47.713Z,100.00
2023-03-12T16:07:50.708Z,100.00
2023-03-12T16:10:55.381Z,100.00
2023-03-12T16:14:04.377Z,100.00
2023-03-12T16:17:11.784Z,100.00
2023-03-12T16:20:17.402Z,100.00
2023-03-12T16:23:20.747Z,100.00
2023-03-12T16:26:23.465Z,100.00
2023-03-12T16:29:33.077Z,100.00
2023-03-12T16:32:35.809Z,100.00
2023-03-12T16:35:38.572Z,100.00
2023-03-12T16:38:41.175Z,100.00
2023-03-12T16:41:44.137Z,100.00
2023-03-12T16:44:48.369Z,100.00
2023-03-12T16:47:56.009Z,100.00
2023-03-12T16:50:58.999Z,100.00
2023-03-12T16:54:11.169Z,100.00
2023-03-12T16:57:20.602Z,100.00
2023-03-12T17:00:28.005Z,100.00
2023-03-12T17:03:36.218Z,100.00
2023-03-12T17:06:40.394Z,100.00
2023-03-12T17:09:42.968Z,100.00
2023-03-12T17:12:47.994Z,100.00
2023-03-12T17:15:52.913Z,100.00
2023-03-12T17:18:55.970Z,100.00
2023-03-12T17:21:58.625Z,100.00
2023-03-12T17:25:01.202Z,100.00
2023-03-12T17:28:04.336Z,100.00
2023-03-12T17:31:08.755Z,100.00
2023-03-12T17:34:11.445Z,100.00
2023-03-12T17:37:14.140Z,100.00
2023-03-12T17:40:16.892Z,100.00
2023-03-12T17:43:19.658Z,100.00
2023-03-12T17:46:23.857Z,100.00
2023-03-12T17:49:26.828Z,100.00
2023-03-12T17:52:29.575Z,100.00
2023-03-12T17:55:32.206Z,100.00
2023-03-12T17:58:35.010Z,100.00
2023-03-12T18:01:39.109Z,100.00
2023-03-12T18:04:42.102Z,100.00
2023-03-12T18:07:44.806Z,100.00
2023-03-12T18:10:48.798Z,100.00
2023-03-12T18:13:51.474Z,100.00
2023-03-12T18:16:55.540Z,100.00
2023-03-12T18:19:58.247Z,100.00
2023-03-12T18:23:00.876Z,100.00
2023-03-12T18:26:04.041Z,100.00
2023-03-12T18:29:06.750Z,100.00
2023-03-12T18:32:10.802Z,100.00
2023-03-12T18:35:13.496Z,100.00
2023-03-12T18:38:16.210Z,100.00
2023-03-12T18:41:18.850Z,100.00
2023-03-12T18:44:21.627Z,100.00
2023-03-12T18:47:25.811Z,100.00
2023-03-12T18:50:28.400Z,100.00
2023-03-12T18:53:33.050Z,100.00
2023-03-12T18:56:38.078Z,100.00
2023-03-12T18:59:45.092Z,100.00
2023-03-12T19:02:49.248Z,100.00
2023-03-12T19:06:01.923Z,100.00
2023-03-12T19:09:05.193Z,100.00
2023-03-12T19:12:08.107Z,100.00
2023-03-12T19:15:12.144Z,100.00
2023-03-12T19:18:16.154Z,100.00
2023-03-12T19:21:19.297Z,100.00
2023-03-12T19:24:21.974Z,100.00
2023-03-12T19:27:24.667Z,100.00
2023-03-12T19:30:30.571Z,100.00
2023-03-12T19:33:34.810Z,100.00
2023-03-12T19:36:37.567Z,100.00
2023-03-12T19:39:40.183Z,100.00
2023-03-12T19:42:43.146Z,100.00
2023-03-12T19:45:46.346Z,100.00
2023-03-12T19:48:50.456Z,100.00
2023-03-12T19:51:53.120Z,100.00
2023-03-12T19:55:04.335Z,100.00
2023-03-12T19:58:08.333Z,100.00
2023-03-12T20:01:11.008Z,100.00
2023-03-12T20:04:15.046Z,100.00
2023-03-12T20:07:18.420Z,100.00
2023-03-12T20:10:21.491Z,100.00
2023-03-12T20:13:24.087Z,100.00
2023-03-12T20:16:26.743Z,100.00
2023-03-12T20:19:30.828Z,100.00
2023-03-12T20:22:36.105Z,100.00
2023-03-12T20:25:40.272Z,100.00
2023-03-12T20:28:43.003Z,100.00
2023-03-12T20:31:45.647Z,100.00
2023-03-12T20:34:49.635Z,100.00
2023-03-12T20:37:52.204Z,100.00
2023-03-12T20:40:54.873Z,100.00
2023-03-12T20:43:57.857Z,100.00
2023-03-12T20:47:00.514Z,100.00
2023-03-12T20:50:04.834Z,100.00
2023-03-12T20:53:07.500Z,100.00
2023-03-12T20:56:10.917Z,100.00
2023-03-12T20:59:13.680Z,100.00
2023-03-12T21:02:16.757Z,100.00
2023-03-12T21:05:22.153Z,100.00
2023-03-12T21:08:26.869Z,100.00
2023-03-12T21:11:31.152Z,100.00
2023-03-12T21:14:33.923Z,100.00
2023-03-12T21:17:38.294Z,100.00
2023-03-12T21:20:42.886Z,100.00
2023-03-12T21:23:45.510Z,100.00
2023-03-12T21:26:48.199Z,100.00
2023-03-12T21:29:50.984Z,100.00
2023-03-12T21:32:53.634Z,100.00
2023-03-12T21:35:57.781Z,100.00
2023-03-12T21:39:02.050Z,100.00
2023-03-12T21:42:04.877Z,100.00
2023-03-12T21:45:09.265Z,100.00
2023-03-12T21:48:11.932Z,100.00
2023-03-12T21:51:18.107Z,100.00
2023-03-12T21:54:20.691Z,100.00
2023-03-12T21:57:23.306Z,100.00
2023-03-12T22:00:26.067Z,100.00
2023-03-12T22:03:28.650Z,100.00
2023-03-12T22:06:32.942Z,100.00
2023-03-12T22:09:35.533Z,100.00
2023-03-12T22:12:38.392Z,100.00
2023-03-12T22:15:41.013Z,100.00
2023-03-12T22:18:45.648Z,100.00
2023-03-12T22:21:49.606Z,100.00
2023-03-12T22:24:52.176Z,100.00
2023-03-12T22:27:54.797Z,100.00
2023-03-12T22:31:01.937Z,100.00
2023-03-12T22:34:04.562Z,100.00
2023-03-12T22:37:08.515Z,100.00
2023-03-12T22:40:12.490Z,100.00
2023-03-12T22:43:15.482Z,100.00
2023-03-12T22:46:21.912Z,100.00
2023-03-12T22:49:24.499Z,100.00
2023-03-12T22:52:28.408Z,100.00
2023-03-12T22:55:31.052Z,100.00
2023-03-12T22:58:34.318Z,100.00
2023-03-12T23:01:36.935Z,100.00
2023-03-12T23:04:39.722Z,100.00
2023-03-12T23:07:43.765Z,100.00
2023-03-12T23:10:51.919Z,100.00
2023-03-12T23:13:54.754Z,100.00
2023-03-12T23:16:57.884Z,100.00
2023-03-12T23:20:00.485Z,100.00
2023-03-12T23:23:04.447Z,100.00
2023-03-12T23:26:07.198Z,100.00
2023-03-12T23:29:12.983Z,100.00
2023-03-12T23:32:15.719Z,100.00
2023-03-12T23:35:18.693Z,100.00
2023-03-12T23:38:22.767Z,100.00
2023-03-12T23:41:29.173Z,100.00
2023-03-12T23:44:32.003Z,100.00
2023-03-12T23:47:34.601Z,100.00
2023-03-12T23:50:37.877Z,100.00
2023-03-12T23:53:43.944Z,100.00
2023-03-12T23:56:46.514Z,100.00
2023-03-12T23:59:49.146Z,100.00
